Hundvaag 1 weather for May 2010
Month no. 275
Obs.
Da.
Temp. Dew Point Precip. Wind
Speed
Wind gusts Cloud cover Press. Humidity Wind dir. Sunny OPT
01.05.2010 5,6 2,2 2,5 11,1 12,4 8 1002,9 79,0 270,0 1 72,5 %
02.05.2010 6,2 2,1 0,0 7,4 7,4 8 1016,1 75,0 270,0 1 75,0 %
03.05.2010 4,2 1,9 0,0 1,6 1,6 10 1017,8 85,0 337,5 1 82,5 %
04.05.2010 4,9 -0,9 0,0 16,7 16,7 10 1022,6 66,0 292,5 1 72,5 %
05.05.2010 6,8 -5,2 0,0 7,4 0,0 10 1024,3 42,0 67,5 1 80,0 %
06.05.2010 7,3 2,2 0,0 0,0 0,0 3 1021,2 70,0 135,0 1 67,5 %
07.05.2010 7,9 1,1 0,0 4,8 4,8 10 1020,9 62,0 45,0 1 85,0 %
08.05.2010 7,9 -1,1 0,0 0,0 9,7 10 1016,8 53,0 67,5 1 87,5 %
09.05.2010 5,1 1,8 0,0 14,5 14,5 8 1012,8 79,0 292,5 1 72,5 %
10.05.2010 5,1 1,2 1,6 18,5 18,5 3 1009,7 76,0 270,0 1 55,0 %
11.05.2010 11,2 6,1 1,5 3,7 3,7 8 1012,1 71,0 270,0 1 82,5 %
12.05.2010 4,7 2,0 1,0 0,0 0,0 9 1016,1 83,0 315,0 1 80,0 %
13.05.2010 6,5 3,7 0,0 0,0 8,0 10 1010,7 82,0 292,5 1 85,0 %
14.05.2010 6,3 2,7 0,0 0,0 4,8 0 1011,1 78,0 315,0 1 60,0 %
15.05.2010 8,4 0,6 0,0 1,9 1,9 10 1017,8 58,0 270,0 1 87,5 %
16.05.2010 8,4 3,8 10,5 10,8 10,8 0 1008,7 73,0 292,5   50,0 %
17.05.2010 7,6 5,4 15,0 21,2 21,2 2 1014,8 86,0 270,0 1 42,5 %
18.05.2010 7,6 5,4 0,0 20,4 20,4 10 1014,8 86,0 270,0 1 75,0 %
19.05.2010 12,9 8,2 0,0 7,4 7,4 10 1029,7 73,0 270,0 1 87,5 %
20.05.2010 12,4 8,8 0,0 11,1 11,1 9 1031,0 79,0 292,5 1 80,0 %
21.05.2010 12,0 8,1 0,0 11,1 11,1 8 1032,7 77,0 337,5 1 77,5 %
22.05.2010 11,7 6,8 0,0 5,6 5,6 10 1031,4 72,0 292,5 1 87,5 %
23.05.2010 11,7 7,6 0,0 5,6 5,6 5 1031,4 76,0 292,5 1 75,0 %
24.05.2010 10,1 8,8 3,2 4,8 19,3 7 1006,7 92,0 337,5 1 77,5 %
25.05.2010 7,1 4,1 0,7 6,4 20,9 7 1005,3 81,0 270,0 1 75,0 %
26.05.2010 11,1 5,2 0,0 3,7 3,7 1 1011,7 67,0 247,5   65,0 %
27.05.2010 9,3 4,7 0,0 3,5 3,5 8 1010,7 73,0 112,5 1 82,5 %
28.05.2010 9,2 4,0 0,4 9,3 9,3 1 1010,7 70,0 135,0   60,0 %
29.05.2010 9,8 6,7 2,1 1,9 1,9 4 1015,5 81,0 270,0 1 72,5 %
30.05.2010 9,9 6,2 0,0 6,4 6,4 0 1012,8 78,0 22,5   60,0 %
31.05.2010 12,3 7,9 1,0 1,6 1,6 10 1015,8 75,0 22,5 1 90,0 %
Avrg/Sum 8,4 3,9 39,5 7,0 8,5 6,7 1016,7 74,1 233,7 27 74,3 %